sensor_id;sensor_type;location;lat;lon;timestamp;P1;durP1;ratioP1;P2;durP2;ratioP2
16139;SDS011;8175;49.326;12.690;2023-02-19T09:04:45;3.53;;;3.07;;
16139;SDS011;8175;49.326;12.690;2023-02-19T09:07:11;4.60;;;3.67;;
16139;SDS011;8175;49.326;12.690;2023-02-19T09:09:37;3.63;;;3.20;;
16139;SDS011;8175;49.326;12.690;2023-02-19T09:12:06;3.47;;;3.17;;
16139;SDS011;8175;49.326;12.690;2023-02-19T09:14:33;2.80;;;2.60;;
16139;SDS011;8175;49.326;12.690;2023-02-19T09:17:00;2.60;;;2.40;;
16139;SDS011;8175;49.326;12.690;2023-02-19T09:19:27;2.43;;;2.13;;
16139;SDS011;8175;49.326;12.690;2023-02-19T09:21:53;2.37;;;2.10;;
16139;SDS011;8175;49.326;12.690;2023-02-19T09:24:19;2.17;;;1.97;;
16139;SDS011;8175;49.326;12.690;2023-02-19T09:26:49;3.10;;;2.80;;
16139;SDS011;8175;49.326;12.690;2023-02-19T09:29:18;2.83;;;2.43;;
16139;SDS011;8175;49.326;12.690;2023-02-19T09:31:45;2.57;;;2.37;;
16139;SDS011;8175;49.326;12.690;2023-02-19T09:34:11;2.93;;;2.30;;
16139;SDS011;8175;49.326;12.690;2023-02-19T09:36:37;2.30;;;2.10;;
16139;SDS011;8175;49.326;12.690;2023-02-19T09:39:04;2.30;;;1.87;;
16139;SDS011;8175;49.326;12.690;2023-02-19T09:41:45;3.13;;;2.53;;
16139;SDS011;8175;49.326;12.690;2023-02-19T09:44:36;3.00;;;2.63;;
16139;SDS011;8175;49.326;12.690;2023-02-19T09:47:23;2.20;;;2.00;;
16139;SDS011;8175;49.326;12.690;2023-02-19T09:49:53;1.90;;;1.80;;
16139;SDS011;8175;49.326;12.690;2023-02-19T09:54:56;2.30;;;2.10;;
16139;SDS011;8175;49.326;12.690;2023-02-19T09:57:24;2.13;;;1.83;;
16139;SDS011;8175;49.326;12.690;2023-02-19T10:02:24;2.73;;;2.17;;
16139;SDS011;8175;49.326;12.690;2023-02-19T10:04:52;2.30;;;1.67;;
16139;SDS011;8175;49.326;12.690;2023-02-19T10:07:25;6.47;;;2.43;;
16139;SDS011;8175;49.326;12.690;2023-02-19T10:09:58;2.47;;;1.63;;
16139;SDS011;8175;49.326;12.690;2023-02-19T10:12:27;2.00;;;1.80;;
16139;SDS011;8175;49.326;12.690;2023-02-19T10:14:57;1.90;;;1.70;;
16139;SDS011;8175;49.326;12.690;2023-02-19T10:17:44;1.70;;;1.60;;
16139;SDS011;8175;49.326;12.690;2023-02-19T10:20:17;2.00;;;1.80;;
16139;SDS011;8175;49.326;12.690;2023-02-19T10:22:48;1.73;;;1.63;;
16139;SDS011;8175;49.326;12.690;2023-02-19T10:25:17;1.80;;;1.70;;
16139;SDS011;8175;49.326;12.690;2023-02-19T10:27:43;3.73;;;2.00;;
16139;SDS011;8175;49.326;12.690;2023-02-19T10:30:22;3.20;;;1.73;;
16139;SDS011;8175;49.326;12.690;2023-02-19T10:35:30;2.60;;;1.57;;
16139;SDS011;8175;49.326;12.690;2023-02-19T10:38:01;1.77;;;1.63;;
16139;SDS011;8175;49.326;12.690;2023-02-19T10:40:30;3.93;;;2.47;;
16139;SDS011;8175;49.326;12.690;2023-02-19T10:42:57;3.50;;;2.07;;
16139;SDS011;8175;49.326;12.690;2023-02-19T10:45:32;3.57;;;2.30;;
16139;SDS011;8175;49.326;12.690;2023-02-19T10:48:20;3.47;;;2.00;;
16139;SDS011;8175;49.326;12.690;2023-02-19T10:51:01;1.80;;;1.70;;
16139;SDS011;8175;49.326;12.690;2023-02-19T10:53:37;1.70;;;1.60;;
16139;SDS011;8175;49.326;12.690;2023-02-19T10:56:26;1.47;;;1.37;;
16139;SDS011;8175;49.326;12.690;2023-02-19T10:58:54;1.90;;;1.63;;
16139;SDS011;8175;49.326;12.690;2023-02-19T11:03:49;1.77;;;1.67;;
16139;SDS011;8175;49.326;12.690;2023-02-19T11:06:17;1.57;;;1.47;;
16139;SDS011;8175;49.326;12.690;2023-02-19T11:08:46;1.80;;;1.70;;
16139;SDS011;8175;49.326;12.690;2023-02-19T11:11:21;1.67;;;1.50;;
16139;SDS011;8175;49.326;12.690;2023-02-19T11:14:16;2.60;;;2.07;;
16139;SDS011;8175;49.326;12.690;2023-02-19T11:16:46;2.57;;;2.30;;
16139;SDS011;8175;49.326;12.690;2023-02-19T11:24:50;2.00;;;1.80;;
16139;SDS011;8175;49.326;12.690;2023-02-19T11:27:17;2.57;;;2.37;;
16139;SDS011;8175;49.326;12.690;2023-02-19T11:29:46;2.77;;;2.43;;
16139;SDS011;8175;49.326;12.690;2023-02-19T11:32:22;2.30;;;2.10;;
16139;SDS011;8175;49.326;12.690;2023-02-19T11:34:50;1.57;;;1.47;;
16139;SDS011;8175;49.326;12.690;2023-02-19T11:37:18;2.20;;;1.90;;
16139;SDS011;8175;49.326;12.690;2023-02-19T11:39:51;2.13;;;1.93;;
16139;SDS011;8175;49.326;12.690;2023-02-19T12:25:51;1.70;;;1.60;;
16139;SDS011;8175;49.326;12.690;2023-02-19T12:28:40;3.00;;;1.73;;
16139;SDS011;8175;49.326;12.690;2023-02-19T12:44:54;1.33;;;1.10;;
16139;SDS011;8175;49.326;12.690;2023-02-19T12:47:26;1.90;;;1.27;;
16139;SDS011;8175;49.326;12.690;2023-02-19T12:50:02;2.47;;;1.90;;
16139;SDS011;8175;49.326;12.690;2023-02-19T12:52:40;5.27;;;2.07;;
16139;SDS011;8175;49.326;12.690;2023-02-19T12:55:19;2.10;;;2.00;;
16139;SDS011;8175;49.326;12.690;2023-02-19T12:57:49;4.17;;;2.87;;
16139;SDS011;8175;49.326;12.690;2023-02-19T13:08:33;1.13;;;1.03;;
16139;SDS011;8175;49.326;12.690;2023-02-19T13:11:01;2.30;;;1.60;;
16139;SDS011;8175;49.326;12.690;2023-02-19T13:16:02;2.20;;;2.03;;
16139;SDS011;8175;49.326;12.690;2023-02-19T13:18:41;3.53;;;1.80;;
16139;SDS011;8175;49.326;12.690;2023-02-19T13:21:09;1.40;;;1.30;;
16139;SDS011;8175;49.326;12.690;2023-02-19T13:23:37;2.87;;;1.80;;
16139;SDS011;8175;49.326;12.690;2023-02-19T13:37:43;5.10;;;2.77;;
16139;SDS011;8175;49.326;12.690;2023-02-19T13:42:50;2.73;;;2.20;;
16139;SDS011;8175;49.326;12.690;2023-02-19T13:45:22;2.97;;;1.90;;
16139;SDS011;8175;49.326;12.690;2023-02-19T13:52:47;3.93;;;2.50;;
16139;SDS011;8175;49.326;12.690;2023-02-19T14:01:09;5.83;;;3.97;;
16139;SDS011;8175;49.326;12.690;2023-02-19T14:06:02;3.07;;;2.43;;
16139;SDS011;8175;49.326;12.690;2023-02-19T14:14:39;2.70;;;2.50;;
16139;SDS011;8175;49.326;12.690;2023-02-19T14:28:01;2.23;;;2.00;;
16139;SDS011;8175;49.326;12.690;2023-02-19T14:30:31;3.37;;;2.20;;
16139;SDS011;8175;49.326;12.690;2023-02-19T14:32:59;2.60;;;2.17;;
16139;SDS011;8175;49.326;12.690;2023-02-19T14:35:35;3.70;;;2.10;;
16139;SDS011;8175;49.326;12.690;2023-02-19T14:38:18;2.40;;;2.20;;
16139;SDS011;8175;49.326;12.690;2023-02-19T14:40:48;4.13;;;2.07;;
16139;SDS011;8175;49.326;12.690;2023-02-19T14:43:15;2.83;;;2.37;;
16139;SDS011;8175;49.326;12.690;2023-02-19T14:45:47;2.87;;;2.20;;
16139;SDS011;8175;49.326;12.690;2023-02-19T14:48:21;4.50;;;2.87;;
16139;SDS011;8175;49.326;12.690;2023-02-19T14:50:51;2.50;;;2.27;;
16139;SDS011;8175;49.326;12.690;2023-02-19T14:53:22;4.27;;;2.30;;
16139;SDS011;8175;49.326;12.690;2023-02-19T14:55:49;2.63;;;2.37;;
16139;SDS011;8175;49.326;12.690;2023-02-19T14:58:21;4.00;;;2.70;;
16139;SDS011;8175;49.326;12.690;2023-02-19T15:00:50;7.47;;;4.97;;
16139;SDS011;8175;49.326;12.690;2023-02-19T15:03:34;4.57;;;3.00;;
16139;SDS011;8175;49.326;12.690;2023-02-19T15:06:03;3.07;;;2.67;;
16139;SDS011;8175;49.326;12.690;2023-02-19T15:08:32;3.10;;;2.17;;
16139;SDS011;8175;49.326;12.690;2023-02-19T15:11:06;3.10;;;2.47;;
16139;SDS011;8175;49.326;12.690;2023-02-19T15:13:35;5.47;;;3.13;;
16139;SDS011;8175;49.326;12.690;2023-02-19T15:16:01;3.53;;;2.93;;
16139;SDS011;8175;49.326;12.690;2023-02-19T15:18:27;4.70;;;3.63;;
16139;SDS011;8175;49.326;12.690;2023-02-19T15:20:57;4.33;;;3.03;;
16139;SDS011;8175;49.326;12.690;2023-02-19T15:23:29;0.80;;;0.80;;
16139;SDS011;8175;49.326;12.690;2023-02-19T15:25:57;2.00;;;0.90;;
16139;SDS011;8175;49.326;12.690;2023-02-19T15:33:21;0.70;;;0.70;;
16139;SDS011;8175;49.326;12.690;2023-02-19T15:35:49;0.70;;;0.70;;
16139;SDS011;8175;49.326;12.690;2023-02-19T15:38:19;0.80;;;0.60;;
16139;SDS011;8175;49.326;12.690;2023-02-19T15:40:46;1.77;;;0.90;;
16139;SDS011;8175;49.326;12.690;2023-02-19T15:43:23;1.20;;;1.10;;
16139;SDS011;8175;49.326;12.690;2023-02-19T15:45:56;3.73;;;3.37;;
16139;SDS011;8175;49.326;12.690;2023-02-19T15:48:30;1.53;;;1.40;;
16139;SDS011;8175;49.326;12.690;2023-02-19T15:51:04;1.53;;;1.20;;
16139;SDS011;8175;49.326;12.690;2023-02-19T15:53:35;1.43;;;1.17;;
16139;SDS011;8175;49.326;12.690;2023-02-19T15:56:15;1.47;;;1.20;;
16139;SDS011;8175;49.326;12.690;2023-02-19T15:59:11;0.93;;;0.90;;
16139;SDS011;8175;49.326;12.690;2023-02-19T16:01:40;0.87;;;0.80;;
16139;SDS011;8175;49.326;12.690;2023-02-19T16:04:12;1.07;;;0.90;;
16139;SDS011;8175;49.326;12.690;2023-02-19T16:06:53;2.03;;;0.87;;
16139;SDS011;8175;49.326;12.690;2023-02-19T16:09:27;5.63;;;4.57;;
16139;SDS011;8175;49.326;12.690;2023-02-19T16:11:55;3.03;;;2.73;;
16139;SDS011;8175;49.326;12.690;2023-02-19T16:22:10;4.63;;;4.13;;
16139;SDS011;8175;49.326;12.690;2023-02-19T16:24:43;1.63;;;1.50;;
16139;SDS011;8175;49.326;12.690;2023-02-19T16:27:11;4.77;;;3.60;;
16139;SDS011;8175;49.326;12.690;2023-02-19T16:29:38;6.30;;;5.53;;
16139;SDS011;8175;49.326;12.690;2023-02-19T16:32:04;3.37;;;3.07;;
16139;SDS011;8175;49.326;12.690;2023-02-19T16:34:43;3.57;;;3.03;;
16139;SDS011;8175;49.326;12.690;2023-02-19T16:40:40;3.83;;;2.73;;
16139;SDS011;8175;49.326;12.690;2023-02-19T16:45:17;2.90;;;1.50;;
16139;SDS011;8175;49.326;12.690;2023-02-19T16:47:43;1.40;;;1.30;;
16139;SDS011;8175;49.326;12.690;2023-02-19T16:50:14;1.33;;;1.20;;
16139;SDS011;8175;49.326;12.690;2023-02-19T16:52:50;2.37;;;1.40;;
16139;SDS011;8175;49.326;12.690;2023-02-19T16:55:19;2.07;;;1.40;;
16139;SDS011;8175;49.326;12.690;2023-02-19T16:57:45;2.33;;;2.13;;
16139;SDS011;8175;49.326;12.690;2023-02-19T17:00:15;3.70;;;2.43;;
16139;SDS011;8175;49.326;12.690;2023-02-19T17:02:48;4.10;;;3.47;;
16139;SDS011;8175;49.326;12.690;2023-02-19T17:05:15;4.17;;;2.90;;
16139;SDS011;8175;49.326;12.690;2023-02-19T17:07:42;4.37;;;3.60;;
16139;SDS011;8175;49.326;12.690;2023-02-19T17:10:29;5.47;;;4.37;;
16139;SDS011;8175;49.326;12.690;2023-02-19T17:12:54;6.97;;;5.03;;
16139;SDS011;8175;49.326;12.690;2023-02-19T17:15:20;4.60;;;3.87;;
16139;SDS011;8175;49.326;12.690;2023-02-19T17:17:46;6.10;;;3.80;;
16139;SDS011;8175;49.326;12.690;2023-02-19T17:20:17;4.20;;;3.80;;
16139;SDS011;8175;49.326;12.690;2023-02-19T17:22:48;5.13;;;4.30;;
16139;SDS011;8175;49.326;12.690;2023-02-19T17:25:13;6.77;;;5.90;;
16139;SDS011;8175;49.326;12.690;2023-02-19T17:27:39;6.30;;;4.67;;
16139;SDS011;8175;49.326;12.690;2023-02-19T17:30:27;5.70;;;4.47;;
16139;SDS011;8175;49.326;12.690;2023-02-19T17:32:52;6.73;;;5.53;;
16139;SDS011;8175;49.326;12.690;2023-02-19T17:35:19;6.60;;;4.50;;
16139;SDS011;8175;49.326;12.690;2023-02-19T17:37:44;4.63;;;4.00;;
16139;SDS011;8175;49.326;12.690;2023-02-19T17:40:31;5.40;;;4.40;;
16139;SDS011;8175;49.326;12.690;2023-02-19T17:42:56;5.63;;;4.43;;
16139;SDS011;8175;49.326;12.690;2023-02-19T17:45:22;6.43;;;4.80;;
16139;SDS011;8175;49.326;12.690;2023-02-19T17:47:48;5.10;;;4.10;;
16139;SDS011;8175;49.326;12.690;2023-02-19T17:50:22;7.30;;;5.63;;
16139;SDS011;8175;49.326;12.690;2023-02-19T17:52:49;9.33;;;5.13;;
16139;SDS011;8175;49.326;12.690;2023-02-19T17:55:15;7.80;;;5.07;;
16139;SDS011;8175;49.326;12.690;2023-02-19T17:57:45;6.23;;;5.23;;
16139;SDS011;8175;49.326;12.690;2023-02-19T18:00:12;6.47;;;5.20;;
16139;SDS011;8175;49.326;12.690;2023-02-19T18:02:43;8.50;;;5.70;;
16139;SDS011;8175;49.326;12.690;2023-02-19T18:05:09;7.67;;;4.67;;
16139;SDS011;8175;49.326;12.690;2023-02-19T18:07:35;10.20;;;7.20;;
16139;SDS011;8175;49.326;12.690;2023-02-19T18:10:01;7.90;;;5.77;;
16139;SDS011;8175;49.326;12.690;2023-02-19T18:12:27;7.87;;;5.20;;
16139;SDS011;8175;49.326;12.690;2023-02-19T18:14:53;4.27;;;3.00;;
16139;SDS011;8175;49.326;12.690;2023-02-19T18:17:20;3.07;;;2.73;;
16139;SDS011;8175;49.326;12.690;2023-02-19T18:19:47;2.53;;;2.33;;
16139;SDS011;8175;49.326;12.690;2023-02-19T18:22:13;5.10;;;2.97;;
16139;SDS011;8175;49.326;12.690;2023-02-19T18:24:43;4.57;;;3.80;;
16139;SDS011;8175;49.326;12.690;2023-02-19T18:27:10;4.13;;;3.23;;
16139;SDS011;8175;49.326;12.690;2023-02-19T18:29:36;3.20;;;2.87;;
16139;SDS011;8175;49.326;12.690;2023-02-19T18:32:01;1.43;;;1.33;;
16139;SDS011;8175;49.326;12.690;2023-02-19T18:34:27;1.20;;;0.80;;
16139;SDS011;8175;49.326;12.690;2023-02-19T18:36:53;0.90;;;0.70;;
16139;SDS011;8175;49.326;12.690;2023-02-19T18:39:18;0.87;;;0.70;;
16139;SDS011;8175;49.326;12.690;2023-02-19T18:41:47;1.13;;;1.03;;
16139;SDS011;8175;49.326;12.690;2023-02-19T18:44:18;1.20;;;1.10;;
16139;SDS011;8175;49.326;12.690;2023-02-19T18:46:45;1.20;;;1.10;;
16139;SDS011;8175;49.326;12.690;2023-02-19T18:49:11;0.60;;;0.57;;
16139;SDS011;8175;49.326;12.690;2023-02-19T18:51:37;0.70;;;0.70;;
16139;SDS011;8175;49.326;12.690;2023-02-19T18:54:03;0.87;;;0.73;;
16139;SDS011;8175;49.326;12.690;2023-02-19T18:56:29;0.63;;;0.60;;
16139;SDS011;8175;49.326;12.690;2023-02-19T18:58:55;1.23;;;0.93;;
16139;SDS011;8175;49.326;12.690;2023-02-19T19:01:21;2.80;;;1.23;;
16139;SDS011;8175;49.326;12.690;2023-02-19T19:03:47;0.70;;;0.70;;
16139;SDS011;8175;49.326;12.690;2023-02-19T19:06:12;1.00;;;1.00;;
16139;SDS011;8175;49.326;12.690;2023-02-19T19:08:38;2.33;;;1.53;;
16139;SDS011;8175;49.326;12.690;2023-02-19T19:11:04;1.50;;;1.40;;
16139;SDS011;8175;49.326;12.690;2023-02-19T19:13:29;1.43;;;1.33;;
16139;SDS011;8175;49.326;12.690;2023-02-19T19:15:55;0.70;;;0.70;;
16139;SDS011;8175;49.326;12.690;2023-02-19T19:18:20;1.27;;;1.17;;
16139;SDS011;8175;49.326;12.690;2023-02-19T19:20:46;1.37;;;1.10;;
16139;SDS011;8175;49.326;12.690;2023-02-19T19:23:12;2.13;;;1.50;;
16139;SDS011;8175;49.326;12.690;2023-02-19T19:25:37;2.23;;;1.37;;
16139;SDS011;8175;49.326;12.690;2023-02-19T19:28:03;1.47;;;1.37;;
16139;SDS011;8175;49.326;12.690;2023-02-19T19:30:29;1.20;;;1.10;;
16139;SDS011;8175;49.326;12.690;2023-02-19T19:32:54;1.60;;;1.43;;
16139;SDS011;8175;49.326;12.690;2023-02-19T19:35:20;1.70;;;1.60;;
16139;SDS011;8175;49.326;12.690;2023-02-19T19:37:46;1.60;;;1.50;;
16139;SDS011;8175;49.326;12.690;2023-02-19T19:40:14;2.23;;;1.60;;
16139;SDS011;8175;49.326;12.690;2023-02-19T19:42:41;4.23;;;3.37;;
16139;SDS011;8175;49.326;12.690;2023-02-19T19:45:06;3.37;;;2.17;;
16139;SDS011;8175;49.326;12.690;2023-02-19T19:47:33;4.63;;;2.40;;
16139;SDS011;8175;49.326;12.690;2023-02-19T19:49:59;3.43;;;2.30;;
16139;SDS011;8175;49.326;12.690;2023-02-19T19:52:24;3.43;;;2.60;;
16139;SDS011;8175;49.326;12.690;2023-02-19T19:54:50;2.90;;;2.50;;
16139;SDS011;8175;49.326;12.690;2023-02-19T19:57:18;2.10;;;1.90;;
16139;SDS011;8175;49.326;12.690;2023-02-19T19:59:46;4.77;;;2.57;;
